sensor_id;sensor_type;location;lat;lon;timestamp;pressure;altitude;pressure_sealevel;temperature;humidity
38612;BME280;24368;52.156;20.788;2022-09-09T00:03:40;100175.55;;;13.41;94.15
38612;BME280;24368;52.156;20.788;2022-09-09T00:09:24;100169.33;;;13.19;94.37
38612;BME280;24368;52.156;20.788;2022-09-09T00:14:48;100166.78;;;13.17;95.04
38612;BME280;24368;52.156;20.788;2022-09-09T00:31:04;100162.93;;;13.05;94.35
38612;BME280;24368;52.156;20.788;2022-09-09T00:36:16;100165.77;;;12.90;95.53
38612;BME280;24368;52.156;20.788;2022-09-09T00:57:34;100179.71;;;12.73;96.07
38612;BME280;24368;52.156;20.788;2022-09-09T01:13:32;100154.86;;;12.62;98.32
38612;BME280;24368;52.156;20.788;2022-09-09T01:18:39;100158.17;;;12.54;98.73
38612;BME280;24368;52.156;20.788;2022-09-09T01:23:53;100163.35;;;12.47;99.63
38612;BME280;24368;52.156;20.788;2022-09-09T01:29:04;100158.26;;;12.52;99.03
38612;BME280;24368;52.156;20.788;2022-09-09T01:34:13;100151.91;;;12.63;99.21
38612;BME280;24368;52.156;20.788;2022-09-09T01:39:15;100162.56;;;12.53;98.69
38612;BME280;24368;52.156;20.788;2022-09-09T01:44:16;100159.67;;;12.33;99.59
38612;BME280;24368;52.156;20.788;2022-09-09T01:49:19;100163.80;;;12.31;100.00
38612;BME280;24368;52.156;20.788;2022-09-09T01:54:23;100161.58;;;12.33;100.00
38612;BME280;24368;52.156;20.788;2022-09-09T02:04:44;100147.23;;;12.35;100.00
38612;BME280;24368;52.156;20.788;2022-09-09T02:09:51;100148.62;;;12.38;100.00
38612;BME280;24368;52.156;20.788;2022-09-09T02:15:03;100147.86;;;12.35;100.00
38612;BME280;24368;52.156;20.788;2022-09-09T02:20:13;100160.09;;;12.26;100.00
38612;BME280;24368;52.156;20.788;2022-09-09T02:25:18;100173.20;;;12.13;100.00
38612;BME280;24368;52.156;20.788;2022-09-09T02:30:21;100164.45;;;12.15;100.00
38612;BME280;24368;52.156;20.788;2022-09-09T02:35:24;100155.10;;;12.07;100.00
38612;BME280;24368;52.156;20.788;2022-09-09T02:40:27;100153.65;;;12.07;100.00
38612;BME280;24368;52.156;20.788;2022-09-09T02:45:41;100159.09;;;12.12;100.00
38612;BME280;24368;52.156;20.788;2022-09-09T02:55:57;100166.14;;;12.21;100.00
38612;BME280;24368;52.156;20.788;2022-09-09T03:01:01;100154.86;;;12.23;100.00
38612;BME280;24368;52.156;20.788;2022-09-09T03:06:04;100155.50;;;12.29;100.00
38612;BME280;24368;52.156;20.788;2022-09-09T03:11:07;100165.52;;;12.28;100.00
38612;BME280;24368;52.156;20.788;2022-09-09T03:16:10;100162.67;;;12.28;100.00
38612;BME280;24368;52.156;20.788;2022-09-09T03:21:12;100160.30;;;12.35;100.00
38612;BME280;24368;52.156;20.788;2022-09-09T03:26:14;100148.80;;;12.37;100.00
38612;BME280;24368;52.156;20.788;2022-09-09T03:31:16;100157.81;;;12.35;100.00
38612;BME280;24368;52.156;20.788;2022-09-09T03:36:18;100163.77;;;12.35;100.00
38612;BME280;24368;52.156;20.788;2022-09-09T03:41:20;100164.34;;;12.35;100.00
38612;BME280;24368;52.156;20.788;2022-09-09T03:46:26;100167.17;;;12.30;100.00
38612;BME280;24368;52.156;20.788;2022-09-09T03:51:27;100166.21;;;12.30;100.00
38612;BME280;24368;52.156;20.788;2022-09-09T03:56:29;100164.76;;;12.38;100.00
38612;BME280;24368;52.156;20.788;2022-09-09T04:01:31;100168.13;;;12.41;100.00
38612;BME280;24368;52.156;20.788;2022-09-09T04:06:33;100164.43;;;12.36;100.00
38612;BME280;24368;52.156;20.788;2022-09-09T04:11:34;100162.64;;;12.30;100.00
38612;BME280;24368;52.156;20.788;2022-09-09T04:16:36;100158.66;;;12.29;100.00
38612;BME280;24368;52.156;20.788;2022-09-09T04:21:42;100161.77;;;12.31;100.00
38612;BME280;24368;52.156;20.788;2022-09-09T04:26:43;100165.09;;;12.36;100.00
38612;BME280;24368;52.156;20.788;2022-09-09T04:31:46;100171.28;;;12.30;100.00
38612;BME280;24368;52.156;20.788;2022-09-09T04:36:48;100174.80;;;12.20;100.00
38612;BME280;24368;52.156;20.788;2022-09-09T04:41:50;100175.14;;;12.30;100.00
38612;BME280;24368;52.156;20.788;2022-09-09T04:46:52;100177.13;;;12.35;100.00
38612;BME280;24368;52.156;20.788;2022-09-09T04:51:54;100177.33;;;12.31;100.00
38612;BME280;24368;52.156;20.788;2022-09-09T04:56:55;100180.84;;;12.33;100.00
38612;BME280;24368;52.156;20.788;2022-09-09T05:01:57;100187.43;;;12.34;100.00
38612;BME280;24368;52.156;20.788;2022-09-09T05:06:59;100188.63;;;12.33;100.00
38612;BME280;24368;52.156;20.788;2022-09-09T05:12:01;100189.18;;;12.36;100.00
38612;BME280;24368;52.156;20.788;2022-09-09T05:17:04;100191.70;;;12.35;100.00
38612;BME280;24368;52.156;20.788;2022-09-09T05:22:06;100190.02;;;12.31;100.00
38612;BME280;24368;52.156;20.788;2022-09-09T05:27:09;100195.86;;;12.28;100.00
38612;BME280;24368;52.156;20.788;2022-09-09T05:32:13;100195.65;;;12.32;100.00
38612;BME280;24368;52.156;20.788;2022-09-09T05:37:17;100191.33;;;12.35;100.00
38612;BME280;24368;52.156;20.788;2022-09-09T05:42:18;100191.66;;;12.37;100.00
38612;BME280;24368;52.156;20.788;2022-09-09T05:47:20;100186.53;;;12.34;100.00
38612;BME280;24368;52.156;20.788;2022-09-09T05:52:22;100191.48;;;12.34;100.00
38612;BME280;24368;52.156;20.788;2022-09-09T05:57:25;100194.50;;;12.39;100.00
38612;BME280;24368;52.156;20.788;2022-09-09T06:02:27;100202.95;;;12.39;100.00
38612;BME280;24368;52.156;20.788;2022-09-09T06:07:29;100206.55;;;12.40;100.00
38612;BME280;24368;52.156;20.788;2022-09-09T06:12:30;100213.11;;;12.32;100.00
38612;BME280;24368;52.156;20.788;2022-09-09T06:17:33;100215.68;;;12.34;100.00
38612;BME280;24368;52.156;20.788;2022-09-09T06:22:35;100215.81;;;12.36;100.00
38612;BME280;24368;52.156;20.788;2022-09-09T06:27:37;100223.83;;;12.37;100.00
38612;BME280;24368;52.156;20.788;2022-09-09T06:32:38;100226.42;;;12.33;100.00
38612;BME280;24368;52.156;20.788;2022-09-09T06:37:45;100230.64;;;12.44;100.00
38612;BME280;24368;52.156;20.788;2022-09-09T06:42:50;100229.35;;;12.43;100.00
38612;BME280;24368;52.156;20.788;2022-09-09T06:47:54;100230.05;;;12.43;100.00
38612;BME280;24368;52.156;20.788;2022-09-09T06:52:57;100231.05;;;12.42;100.00
38612;BME280;24368;52.156;20.788;2022-09-09T06:57:59;100231.75;;;12.52;100.00
38612;BME280;24368;52.156;20.788;2022-09-09T07:03:01;100239.35;;;12.62;100.00
38612;BME280;24368;52.156;20.788;2022-09-09T07:08:03;100238.02;;;12.69;100.00
38612;BME280;24368;52.156;20.788;2022-09-09T07:13:05;100240.61;;;12.69;100.00
38612;BME280;24368;52.156;20.788;2022-09-09T07:18:07;100245.65;;;12.61;100.00
38612;BME280;24368;52.156;20.788;2022-09-09T07:23:11;100245.98;;;12.61;100.00
38612;BME280;24368;52.156;20.788;2022-09-09T07:28:14;100241.27;;;12.71;100.00
38612;BME280;24368;52.156;20.788;2022-09-09T07:33:16;100240.81;;;12.82;100.00
38612;BME280;24368;52.156;20.788;2022-09-09T07:38:19;100252.19;;;12.89;100.00
38612;BME280;24368;52.156;20.788;2022-09-09T07:43:26;100264.41;;;12.75;100.00
38612;BME280;24368;52.156;20.788;2022-09-09T07:48:28;100269.65;;;12.67;100.00
38612;BME280;24368;52.156;20.788;2022-09-09T07:53:30;100275.84;;;12.69;100.00
38612;BME280;24368;52.156;20.788;2022-09-09T07:58:32;100287.46;;;12.75;100.00
38612;BME280;24368;52.156;20.788;2022-09-09T08:03:34;100295.05;;;12.82;100.00
38612;BME280;24368;52.156;20.788;2022-09-09T08:08:36;100296.73;;;12.81;100.00
38612;BME280;24368;52.156;20.788;2022-09-09T08:13:41;100302.08;;;12.79;100.00
38612;BME280;24368;52.156;20.788;2022-09-09T08:18:43;100302.54;;;12.82;100.00
38612;BME280;24368;52.156;20.788;2022-09-09T08:23:47;100301.96;;;12.88;100.00
38612;BME280;24368;52.156;20.788;2022-09-09T08:28:51;100305.42;;;12.95;100.00
38612;BME280;24368;52.156;20.788;2022-09-09T08:33:53;100310.45;;;13.01;100.00
38612;BME280;24368;52.156;20.788;2022-09-09T08:38:57;100308.73;;;13.01;100.00
38612;BME280;24368;52.156;20.788;2022-09-09T08:54:51;100317.84;;;13.14;100.00
38612;BME280;24368;52.156;20.788;2022-09-09T08:59:55;100313.11;;;13.17;100.00
38612;BME280;24368;52.156;20.788;2022-09-09T09:05:33;100314.13;;;13.19;100.00
38612;BME280;24368;52.156;20.788;2022-09-09T09:10:47;100319.36;;;13.23;100.00
38612;BME280;24368;52.156;20.788;2022-09-09T09:16:00;100328.84;;;13.30;100.00
38612;BME280;24368;52.156;20.788;2022-09-09T09:26:09;100337.73;;;13.39;100.00
38612;BME280;24368;52.156;20.788;2022-09-09T09:31:13;100331.18;;;13.34;100.00
38612;BME280;24368;52.156;20.788;2022-09-09T09:36:16;100333.44;;;13.39;100.00
38612;BME280;24368;52.156;20.788;2022-09-09T09:41:41;100335.95;;;13.53;100.00
38612;BME280;24368;52.156;20.788;2022-09-09T09:46:44;100339.29;;;13.60;100.00
38612;BME280;24368;52.156;20.788;2022-09-09T09:51:46;100337.59;;;13.56;100.00
38612;BME280;24368;52.156;20.788;2022-09-09T09:56:48;100336.23;;;13.59;100.00
38612;BME280;24368;52.156;20.788;2022-09-09T10:01:51;100343.38;;;13.66;100.00
38612;BME280;24368;52.156;20.788;2022-09-09T10:06:53;100345.47;;;13.61;100.00
38612;BME280;24368;52.156;20.788;2022-09-09T10:12:14;100343.70;;;13.63;100.00
38612;BME280;24368;52.156;20.788;2022-09-09T10:23:18;100352.84;;;13.84;100.00
38612;BME280;24368;52.156;20.788;2022-09-09T10:29:10;100366.79;;;13.89;100.00
38612;BME280;24368;52.156;20.788;2022-09-09T10:34:04;100385.48;;;13.74;100.00
38612;BME280;24368;52.156;20.788;2022-09-09T10:55:13;100398.22;;;13.91;100.00
38612;BME280;24368;52.156;20.788;2022-09-09T11:00:55;100405.32;;;13.89;100.00
38612;BME280;24368;52.156;20.788;2022-09-09T11:06:09;100408.09;;;13.90;100.00
38612;BME280;24368;52.156;20.788;2022-09-09T11:11:19;100412.92;;;13.88;100.00
38612;BME280;24368;52.156;20.788;2022-09-09T11:16:43;100411.42;;;14.00;100.00
38612;BME280;24368;52.156;20.788;2022-09-09T11:21:49;100417.46;;;14.10;100.00
38612;BME280;24368;52.156;20.788;2022-09-09T11:27:02;100417.23;;;14.14;100.00
38612;BME280;24368;52.156;20.788;2022-09-09T11:37:47;100421.41;;;14.21;100.00
38612;BME280;24368;52.156;20.788;2022-09-09T11:48:35;100430.17;;;14.32;100.00
38612;BME280;24368;52.156;20.788;2022-09-09T11:53:58;100432.69;;;14.26;100.00
38612;BME280;24368;52.156;20.788;2022-09-09T11:59:16;100434.13;;;14.24;100.00
38612;BME280;24368;52.156;20.788;2022-09-09T12:14:44;100438.19;;;14.21;100.00
38612;BME280;24368;52.156;20.788;2022-09-09T12:20:16;100430.88;;;14.25;100.00
38612;BME280;24368;52.156;20.788;2022-09-09T12:36:39;100434.36;;;14.28;100.00
38612;BME280;24368;52.156;20.788;2022-09-09T12:41:54;100433.95;;;14.38;100.00
38612;BME280;24368;52.156;20.788;2022-09-09T12:47:01;100419.97;;;14.39;100.00
38612;BME280;24368;52.156;20.788;2022-09-09T12:52:08;100426.02;;;14.40;100.00
38612;BME280;24368;52.156;20.788;2022-09-09T12:57:14;100429.71;;;14.51;100.00
38612;BME280;24368;52.156;20.788;2022-09-09T13:02:22;100426.41;;;14.50;100.00
38612;BME280;24368;52.156;20.788;2022-09-09T13:07:25;100422.69;;;14.52;100.00
38612;BME280;24368;52.156;20.788;2022-09-09T13:12:27;100418.54;;;14.55;100.00
38612;BME280;24368;52.156;20.788;2022-09-09T13:17:29;100413.68;;;14.60;100.00
38612;BME280;24368;52.156;20.788;2022-09-09T13:22:34;100409.38;;;14.74;100.00
38612;BME280;24368;52.156;20.788;2022-09-09T13:27:41;100410.23;;;14.82;100.00
38612;BME280;24368;52.156;20.788;2022-09-09T13:38:17;100411.88;;;14.62;100.00
38612;BME280;24368;52.156;20.788;2022-09-09T13:43:22;100413.14;;;14.65;100.00
38612;BME280;24368;52.156;20.788;2022-09-09T13:48:25;100416.66;;;14.67;100.00
38612;BME280;24368;52.156;20.788;2022-09-09T13:53:28;100418.79;;;14.61;100.00
38612;BME280;24368;52.156;20.788;2022-09-09T13:58:30;100421.53;;;14.63;100.00
38612;BME280;24368;52.156;20.788;2022-09-09T14:03:32;100423.98;;;14.69;100.00
38612;BME280;24368;52.156;20.788;2022-09-09T14:08:35;100422.32;;;14.73;100.00
38612;BME280;24368;52.156;20.788;2022-09-09T14:13:38;100425.66;;;14.64;100.00
38612;BME280;24368;52.156;20.788;2022-09-09T14:18:40;100427.77;;;14.69;100.00
38612;BME280;24368;52.156;20.788;2022-09-09T14:23:42;100427.05;;;14.81;100.00
38612;BME280;24368;52.156;20.788;2022-09-09T14:28:44;100421.64;;;14.94;100.00
38612;BME280;24368;52.156;20.788;2022-09-09T14:33:46;100425.06;;;15.08;100.00
38612;BME280;24368;52.156;20.788;2022-09-09T14:38:48;100420.88;;;15.00;100.00
38612;BME280;24368;52.156;20.788;2022-09-09T14:43:51;100432.80;;;14.98;100.00
38612;BME280;24368;52.156;20.788;2022-09-09T14:48:53;100437.55;;;14.92;100.00
38612;BME280;24368;52.156;20.788;2022-09-09T14:53:58;100437.04;;;14.91;100.00
38612;BME280;24368;52.156;20.788;2022-09-09T14:59:00;100442.09;;;14.78;100.00
38612;BME280;24368;52.156;20.788;2022-09-09T15:04:04;100434.58;;;14.83;100.00
38612;BME280;24368;52.156;20.788;2022-09-09T15:09:06;100432.02;;;14.90;100.00
38612;BME280;24368;52.156;20.788;2022-09-09T15:14:09;100431.17;;;14.94;100.00
38612;BME280;24368;52.156;20.788;2022-09-09T15:19:10;100430.23;;;14.93;100.00
38612;BME280;24368;52.156;20.788;2022-09-09T15:24:12;100434.25;;;14.86;100.00
38612;BME280;24368;52.156;20.788;2022-09-09T15:29:15;100442.91;;;14.76;100.00
38612;BME280;24368;52.156;20.788;2022-09-09T15:34:17;100444.12;;;14.64;100.00
38612;BME280;24368;52.156;20.788;2022-09-09T15:39:19;100447.73;;;14.69;100.00
38612;BME280;24368;52.156;20.788;2022-09-09T15:44:21;100445.56;;;14.73;100.00
38612;BME280;24368;52.156;20.788;2022-09-09T15:49:27;100438.02;;;14.75;100.00
38612;BME280;24368;52.156;20.788;2022-09-09T15:54:32;100439.89;;;14.80;100.00
38612;BME280;24368;52.156;20.788;2022-09-09T15:59:34;100430.30;;;14.82;100.00
38612;BME280;24368;52.156;20.788;2022-09-09T16:04:36;100434.36;;;14.76;100.00
38612;BME280;24368;52.156;20.788;2022-09-09T16:09:43;100428.83;;;14.70;100.00
38612;BME280;24368;52.156;20.788;2022-09-09T16:14:46;100433.55;;;14.71;100.00
38612;BME280;24368;52.156;20.788;2022-09-09T16:19:47;100434.58;;;14.69;100.00
38612;BME280;24368;52.156;20.788;2022-09-09T16:24:49;100433.55;;;14.69;100.00
38612;BME280;24368;52.156;20.788;2022-09-09T16:29:51;100435.23;;;14.64;100.00
38612;BME280;24368;52.156;20.788;2022-09-09T16:34:53;100429.61;;;14.59;100.00
38612;BME280;24368;52.156;20.788;2022-09-09T16:39:54;100425.54;;;14.66;100.00
38612;BME280;24368;52.156;20.788;2022-09-09T16:44:56;100423.71;;;14.73;100.00
38612;BME280;24368;52.156;20.788;2022-09-09T16:49:58;100432.59;;;14.70;100.00
38612;BME280;24368;52.156;20.788;2022-09-09T16:55:00;100429.42;;;14.65;100.00
38612;BME280;24368;52.156;20.788;2022-09-09T17:00:03;100429.97;;;14.60;100.00
38612;BME280;24368;52.156;20.788;2022-09-09T17:05:07;100428.98;;;14.60;100.00
38612;BME280;24368;52.156;20.788;2022-09-09T17:10:09;100438.37;;;14.61;100.00
38612;BME280;24368;52.156;20.788;2022-09-09T17:15:11;100449.84;;;14.56;100.00
38612;BME280;24368;52.156;20.788;2022-09-09T17:20:13;100458.33;;;14.48;100.00
38612;BME280;24368;52.156;20.788;2022-09-09T17:25:17;100460.39;;;14.49;100.00
38612;BME280;24368;52.156;20.788;2022-09-09T17:30:19;100457.50;;;14.41;100.00
38612;BME280;24368;52.156;20.788;2022-09-09T17:35:21;100459.02;;;14.42;100.00
38612;BME280;24368;52.156;20.788;2022-09-09T17:40:22;100464.13;;;14.43;100.00
38612;BME280;24368;52.156;20.788;2022-09-09T17:45:25;100473.77;;;14.43;100.00
38612;BME280;24368;52.156;20.788;2022-09-09T17:50:26;100475.04;;;14.40;100.00
38612;BME280;24368;52.156;20.788;2022-09-09T17:55:28;100477.44;;;14.37;100.00
38612;BME280;24368;52.156;20.788;2022-09-09T18:00:30;100487.02;;;14.30;100.00
38612;BME280;24368;52.156;20.788;2022-09-09T18:05:31;100491.73;;;14.26;100.00
38612;BME280;24368;52.156;20.788;2022-09-09T18:10:33;100489.98;;;14.30;100.00
38612;BME280;24368;52.156;20.788;2022-09-09T18:15:37;100494.50;;;14.29;100.00
38612;BME280;24368;52.156;20.788;2022-09-09T18:20:39;100492.66;;;14.31;100.00
38612;BME280;24368;52.156;20.788;2022-09-09T18:25:43;100496.09;;;14.29;100.00
38612;BME280;24368;52.156;20.788;2022-09-09T18:30:45;100497.34;;;14.26;100.00
38612;BME280;24368;52.156;20.788;2022-09-09T18:35:47;100505.81;;;14.27;100.00
38612;BME280;24368;52.156;20.788;2022-09-09T18:40:49;100509.33;;;14.28;100.00
38612;BME280;24368;52.156;20.788;2022-09-09T18:45:51;100513.76;;;14.27;100.00
38612;BME280;24368;52.156;20.788;2022-09-09T18:50:53;100509.90;;;14.26;100.00
38612;BME280;24368;52.156;20.788;2022-09-09T18:55:59;100503.81;;;14.22;100.00
38612;BME280;24368;52.156;20.788;2022-09-09T19:01:06;100505.27;;;14.20;100.00
38612;BME280;24368;52.156;20.788;2022-09-09T19:06:13;100504.19;;;14.21;100.00
38612;BME280;24368;52.156;20.788;2022-09-09T19:11:17;100511.72;;;14.21;100.00
38612;BME280;24368;52.156;20.788;2022-09-09T19:16:21;100516.05;;;14.21;100.00
38612;BME280;24368;52.156;20.788;2022-09-09T19:21:28;100511.48;;;14.24;100.00
38612;BME280;24368;52.156;20.788;2022-09-09T19:26:34;100505.89;;;14.12;100.00
38612;BME280;24368;52.156;20.788;2022-09-09T19:31:42;100501.87;;;14.04;100.00
38612;BME280;24368;52.156;20.788;2022-09-09T19:36:45;100507.91;;;13.97;100.00
38612;BME280;24368;52.156;20.788;2022-09-09T19:41:48;100499.73;;;13.89;100.00
38612;BME280;24368;52.156;20.788;2022-09-09T19:46:50;100500.48;;;13.84;100.00
38612;BME280;24368;52.156;20.788;2022-09-09T19:51:52;100499.23;;;13.80;100.00
38612;BME280;24368;52.156;20.788;2022-09-09T19:56:55;100502.98;;;13.82;100.00
38612;BME280;24368;52.156;20.788;2022-09-09T20:01:57;100516.04;;;13.67;100.00
38612;BME280;24368;52.156;20.788;2022-09-09T20:06:59;100522.03;;;13.58;100.00
38612;BME280;24368;52.156;20.788;2022-09-09T20:12:01;100520.88;;;13.57;100.00
38612;BME280;24368;52.156;20.788;2022-09-09T20:17:03;100510.20;;;13.54;100.00
38612;BME280;24368;52.156;20.788;2022-09-09T20:22:05;100515.71;;;13.60;100.00
38612;BME280;24368;52.156;20.788;2022-09-09T20:27:06;100516.69;;;13.58;100.00
38612;BME280;24368;52.156;20.788;2022-09-09T20:32:09;100517.70;;;13.57;100.00
38612;BME280;24368;52.156;20.788;2022-09-09T20:37:12;100520.66;;;13.59;100.00
38612;BME280;24368;52.156;20.788;2022-09-09T20:42:14;100518.91;;;13.57;100.00
38612;BME280;24368;52.156;20.788;2022-09-09T20:47:15;100520.09;;;13.51;100.00
38612;BME280;24368;52.156;20.788;2022-09-09T20:52:17;100520.67;;;13.57;100.00
38612;BME280;24368;52.156;20.788;2022-09-09T20:57:20;100524.24;;;13.52;100.00
38612;BME280;24368;52.156;20.788;2022-09-09T21:02:23;100517.38;;;13.48;100.00
38612;BME280;24368;52.156;20.788;2022-09-09T21:07:26;100525.11;;;13.42;100.00
38612;BME280;24368;52.156;20.788;2022-09-09T21:12:28;100527.91;;;13.41;100.00
38612;BME280;24368;52.156;20.788;2022-09-09T21:17:31;100534.13;;;13.47;100.00
38612;BME280;24368;52.156;20.788;2022-09-09T21:22:34;100540.30;;;13.53;100.00
38612;BME280;24368;52.156;20.788;2022-09-09T21:27:36;100534.16;;;13.45;100.00
38612;BME280;24368;52.156;20.788;2022-09-09T21:32:38;100542.86;;;13.48;100.00
38612;BME280;24368;52.156;20.788;2022-09-09T21:37:39;100536.61;;;13.39;100.00
38612;BME280;24368;52.156;20.788;2022-09-09T21:42:42;100535.83;;;13.41;100.00
38612;BME280;24368;52.156;20.788;2022-09-09T21:47:45;100528.66;;;13.45;100.00
38612;BME280;24368;52.156;20.788;2022-09-09T21:52:52;100534.30;;;13.44;100.00
38612;BME280;24368;52.156;20.788;2022-09-09T21:57:54;100535.21;;;13.36;100.00
38612;BME280;24368;52.156;20.788;2022-09-09T22:02:58;100531.64;;;13.35;100.00
38612;BME280;24368;52.156;20.788;2022-09-09T22:07:59;100528.95;;;13.33;100.00
38612;BME280;24368;52.156;20.788;2022-09-09T22:13:01;100525.26;;;13.36;100.00
38612;BME280;24368;52.156;20.788;2022-09-09T22:18:03;100526.08;;;13.43;100.00
38612;BME280;24368;52.156;20.788;2022-09-09T22:23:05;100521.04;;;13.44;100.00
38612;BME280;24368;52.156;20.788;2022-09-09T22:28:08;100525.88;;;13.48;100.00
38612;BME280;24368;52.156;20.788;2022-09-09T22:33:10;100529.95;;;13.46;100.00
38612;BME280;24368;52.156;20.788;2022-09-09T22:38:12;100524.77;;;13.42;100.00
38612;BME280;24368;52.156;20.788;2022-09-09T22:43:19;100520.06;;;13.40;100.00
38612;BME280;24368;52.156;20.788;2022-09-09T22:48:21;100520.45;;;13.33;100.00
38612;BME280;24368;52.156;20.788;2022-09-09T22:53:24;100521.60;;;13.37;100.00
38612;BME280;24368;52.156;20.788;2022-09-09T22:58:28;100523.94;;;13.45;100.00
38612;BME280;24368;52.156;20.788;2022-09-09T23:03:30;100521.17;;;13.39;100.00
38612;BME280;24368;52.156;20.788;2022-09-09T23:08:35;100512.84;;;13.35;100.00
38612;BME280;24368;52.156;20.788;2022-09-09T23:13:39;100506.48;;;13.38;100.00
38612;BME280;24368;52.156;20.788;2022-09-09T23:18:43;100501.73;;;13.39;100.00
38612;BME280;24368;52.156;20.788;2022-09-09T23:23:46;100501.86;;;13.35;100.00
38612;BME280;24368;52.156;20.788;2022-09-09T23:28:48;100500.21;;;13.24;100.00
38612;BME280;24368;52.156;20.788;2022-09-09T23:33:51;100499.27;;;13.23;100.00
38612;BME280;24368;52.156;20.788;2022-09-09T23:38:57;100493.52;;;13.19;100.00
38612;BME280;24368;52.156;20.788;2022-09-09T23:44:01;100492.77;;;13.18;100.00
38612;BME280;24368;52.156;20.788;2022-09-09T23:49:03;100493.77;;;13.21;100.00
38612;BME280;24368;52.156;20.788;2022-09-09T23:54:08;100484.80;;;13.15;100.00
38612;BME280;24368;52.156;20.788;2022-09-09T23:59:11;100489.88;;;13.18;100.00
